sensor_id;sensor_type;location;lat;lon;timestamp;temperature;humidity
50162;DHT22;36061;48.116;11.612;2023-06-14T00:00:33;16.60;75.40
50162;DHT22;36061;48.116;11.612;2023-06-14T00:03:01;16.60;75.50
50162;DHT22;36061;48.116;11.612;2023-06-14T00:05:29;16.60;75.60
50162;DHT22;36061;48.116;11.612;2023-06-14T00:08:00;16.60;75.60
50162;DHT22;36061;48.116;11.612;2023-06-14T00:10:29;16.50;75.70
50162;DHT22;36061;48.116;11.612;2023-06-14T00:12:57;16.50;75.80
50162;DHT22;36061;48.116;11.612;2023-06-14T00:15:25;16.50;76.10
50162;DHT22;36061;48.116;11.612;2023-06-14T00:17:52;16.50;76.30
50162;DHT22;36061;48.116;11.612;2023-06-14T00:20:20;16.40;76.20
50162;DHT22;36061;48.116;11.612;2023-06-14T00:22:48;16.40;76.40
50162;DHT22;36061;48.116;11.612;2023-06-14T00:25:17;16.40;76.60
50162;DHT22;36061;48.116;11.612;2023-06-14T00:27:44;16.30;77.50
50162;DHT22;36061;48.116;11.612;2023-06-14T00:30:12;16.30;77.00
50162;DHT22;36061;48.116;11.612;2023-06-14T00:32:40;16.20;77.20
50162;DHT22;36061;48.116;11.612;2023-06-14T00:35:08;16.20;77.40
50162;DHT22;36061;48.116;11.612;2023-06-14T00:37:36;16.20;77.60
50162;DHT22;36061;48.116;11.612;2023-06-14T00:40:05;16.10;77.70
50162;DHT22;36061;48.116;11.612;2023-06-14T00:42:34;16.10;77.90
50162;DHT22;36061;48.116;11.612;2023-06-14T00:45:01;16.10;78.00
50162;DHT22;36061;48.116;11.612;2023-06-14T00:47:29;16.10;78.20
50162;DHT22;36061;48.116;11.612;2023-06-14T00:49:58;16.00;78.40
50162;DHT22;36061;48.116;11.612;2023-06-14T00:52:25;16.00;78.70
50162;DHT22;36061;48.116;11.612;2023-06-14T00:54:53;16.00;78.90
50162;DHT22;36061;48.116;11.612;2023-06-14T00:57:21;15.90;79.00
50162;DHT22;36061;48.116;11.612;2023-06-14T00:59:51;15.90;79.30
50162;DHT22;36061;48.116;11.612;2023-06-14T01:02:19;15.80;79.40
50162;DHT22;36061;48.116;11.612;2023-06-14T01:04:48;15.80;79.60
50162;DHT22;36061;48.116;11.612;2023-06-14T01:07:25;15.80;79.90
50162;DHT22;36061;48.116;11.612;2023-06-14T01:10:06;15.70;80.10
50162;DHT22;36061;48.116;11.612;2023-06-14T01:12:41;15.70;80.20
50162;DHT22;36061;48.116;11.612;2023-06-14T01:15:13;15.70;80.50
50162;DHT22;36061;48.116;11.612;2023-06-14T01:17:41;15.70;80.80
50162;DHT22;36061;48.116;11.612;2023-06-14T01:20:11;15.60;80.80
50162;DHT22;36061;48.116;11.612;2023-06-14T01:22:50;15.60;80.90
50162;DHT22;36061;48.116;11.612;2023-06-14T01:25:18;15.60;81.10
50162;DHT22;36061;48.116;11.612;2023-06-14T01:27:49;15.60;81.20
50162;DHT22;36061;48.116;11.612;2023-06-14T01:30:17;15.50;81.30
50162;DHT22;36061;48.116;11.612;2023-06-14T01:32:46;15.50;81.40
50162;DHT22;36061;48.116;11.612;2023-06-14T01:35:14;15.40;81.40
50162;DHT22;36061;48.116;11.612;2023-06-14T01:37:42;15.40;81.50
50162;DHT22;36061;48.116;11.612;2023-06-14T01:40:12;15.40;81.70
50162;DHT22;36061;48.116;11.612;2023-06-14T01:42:41;15.40;81.80
50162;DHT22;36061;48.116;11.612;2023-06-14T01:45:10;15.40;81.90
50162;DHT22;36061;48.116;11.612;2023-06-14T01:47:39;15.40;82.00
50162;DHT22;36061;48.116;11.612;2023-06-14T01:50:07;15.30;81.80
50162;DHT22;36061;48.116;11.612;2023-06-14T01:52:34;15.30;81.80
50162;DHT22;36061;48.116;11.612;2023-06-14T01:55:03;15.30;81.70
50162;DHT22;36061;48.116;11.612;2023-06-14T01:57:32;15.30;81.90
50162;DHT22;36061;48.116;11.612;2023-06-14T01:59:59;15.30;82.20
50162;DHT22;36061;48.116;11.612;2023-06-14T02:02:26;15.20;82.40
50162;DHT22;36061;48.116;11.612;2023-06-14T02:04:53;15.20;82.50
50162;DHT22;36061;48.116;11.612;2023-06-14T02:07:23;15.20;82.70
50162;DHT22;36061;48.116;11.612;2023-06-14T02:09:52;15.10;82.70
50162;DHT22;36061;48.116;11.612;2023-06-14T02:12:22;15.10;82.90
50162;DHT22;36061;48.116;11.612;2023-06-14T02:14:51;15.00;83.00
50162;DHT22;36061;48.116;11.612;2023-06-14T02:17:18;15.00;83.10
50162;DHT22;36061;48.116;11.612;2023-06-14T02:19:46;15.00;83.20
50162;DHT22;36061;48.116;11.612;2023-06-14T02:22:13;15.00;83.20
50162;DHT22;36061;48.116;11.612;2023-06-14T02:24:41;15.00;83.30
50162;DHT22;36061;48.116;11.612;2023-06-14T02:27:08;14.90;83.30
50162;DHT22;36061;48.116;11.612;2023-06-14T02:29:37;14.90;83.60
50162;DHT22;36061;48.116;11.612;2023-06-14T02:32:06;14.90;83.80
50162;DHT22;36061;48.116;11.612;2023-06-14T02:34:34;14.80;83.90
50162;DHT22;36061;48.116;11.612;2023-06-14T02:37:01;14.80;84.10
50162;DHT22;36061;48.116;11.612;2023-06-14T02:39:29;14.80;84.20
50162;DHT22;36061;48.116;11.612;2023-06-14T02:41:57;14.80;84.50
50162;DHT22;36061;48.116;11.612;2023-06-14T02:44:24;14.80;84.60
50162;DHT22;36061;48.116;11.612;2023-06-14T02:46:52;14.70;84.70
50162;DHT22;36061;48.116;11.612;2023-06-14T02:49:22;14.70;85.50
50162;DHT22;36061;48.116;11.612;2023-06-14T02:51:49;14.70;85.10
50162;DHT22;36061;48.116;11.612;2023-06-14T02:54:17;14.70;85.40
50162;DHT22;36061;48.116;11.612;2023-06-14T02:56:44;14.60;85.50
50162;DHT22;36061;48.116;11.612;2023-06-14T02:59:12;14.60;85.70
50162;DHT22;36061;48.116;11.612;2023-06-14T03:01:42;14.60;85.90
50162;DHT22;36061;48.116;11.612;2023-06-14T03:04:12;14.60;86.10
50162;DHT22;36061;48.116;11.612;2023-06-14T03:06:43;14.60;86.40
50162;DHT22;36061;48.116;11.612;2023-06-14T03:09:17;14.50;86.60
50162;DHT22;36061;48.116;11.612;2023-06-14T03:11:46;14.50;86.70
50162;DHT22;36061;48.116;11.612;2023-06-14T03:14:13;14.50;86.90
50162;DHT22;36061;48.116;11.612;2023-06-14T03:16:43;14.50;87.10
50162;DHT22;36061;48.116;11.612;2023-06-14T03:19:12;14.50;87.40
50162;DHT22;36061;48.116;11.612;2023-06-14T03:21:41;14.50;87.50
50162;DHT22;36061;48.116;11.612;2023-06-14T03:24:12;14.50;87.40
50162;DHT22;36061;48.116;11.612;2023-06-14T03:26:42;14.40;87.30
50162;DHT22;36061;48.116;11.612;2023-06-14T03:29:10;14.40;87.20
50162;DHT22;36061;48.116;11.612;2023-06-14T03:31:56;14.40;86.90
50162;DHT22;36061;48.116;11.612;2023-06-14T03:34:25;14.40;86.70
50162;DHT22;36061;48.116;11.612;2023-06-14T03:36:52;14.40;86.40
50162;DHT22;36061;48.116;11.612;2023-06-14T03:39:21;14.40;86.10
50162;DHT22;36061;48.116;11.612;2023-06-14T03:41:48;14.40;86.00
50162;DHT22;36061;48.116;11.612;2023-06-14T03:44:17;14.40;86.10
50162;DHT22;36061;48.116;11.612;2023-06-14T03:46:45;14.40;86.40
50162;DHT22;36061;48.116;11.612;2023-06-14T03:49:13;14.40;86.60
50162;DHT22;36061;48.116;11.612;2023-06-14T03:51:43;14.40;86.60
50162;DHT22;36061;48.116;11.612;2023-06-14T03:54:12;14.40;86.50
50162;DHT22;36061;48.116;11.612;2023-06-14T03:56:40;14.40;86.60
50162;DHT22;36061;48.116;11.612;2023-06-14T03:59:10;14.40;86.80
50162;DHT22;36061;48.116;11.612;2023-06-14T04:01:38;14.30;86.90
50162;DHT22;36061;48.116;11.612;2023-06-14T04:04:13;14.30;86.90
50162;DHT22;36061;48.116;11.612;2023-06-14T04:06:42;14.40;87.10
50162;DHT22;36061;48.116;11.612;2023-06-14T04:09:11;14.30;87.20
50162;DHT22;36061;48.116;11.612;2023-06-14T04:11:42;14.40;87.40
50162;DHT22;36061;48.116;11.612;2023-06-14T04:14:09;14.40;87.60
50162;DHT22;36061;48.116;11.612;2023-06-14T04:16:38;14.40;87.80
50162;DHT22;36061;48.116;11.612;2023-06-14T04:19:05;14.50;88.00
50162;DHT22;36061;48.116;11.612;2023-06-14T04:21:32;14.50;88.10
50162;DHT22;36061;48.116;11.612;2023-06-14T04:24:03;14.60;88.30
50162;DHT22;36061;48.116;11.612;2023-06-14T04:26:33;14.60;88.40
50162;DHT22;36061;48.116;11.612;2023-06-14T04:29:01;14.80;88.50
50162;DHT22;36061;48.116;11.612;2023-06-14T04:31:31;14.80;88.40
50162;DHT22;36061;48.116;11.612;2023-06-14T04:34:00;14.90;88.20
50162;DHT22;36061;48.116;11.612;2023-06-14T04:36:31;15.00;88.00
50162;DHT22;36061;48.116;11.612;2023-06-14T04:39:00;14.90;87.90
50162;DHT22;36061;48.116;11.612;2023-06-14T04:41:30;15.10;88.20
50162;DHT22;36061;48.116;11.612;2023-06-14T04:44:01;15.20;88.10
50162;DHT22;36061;48.116;11.612;2023-06-14T04:46:33;15.30;88.00
50162;DHT22;36061;48.116;11.612;2023-06-14T04:49:14;15.40;87.90
50162;DHT22;36061;48.116;11.612;2023-06-14T04:51:43;15.50;87.80
50162;DHT22;36061;48.116;11.612;2023-06-14T04:54:11;15.60;87.70
50162;DHT22;36061;48.116;11.612;2023-06-14T04:56:40;15.70;87.60
50162;DHT22;36061;48.116;11.612;2023-06-14T04:59:10;15.70;87.50
50162;DHT22;36061;48.116;11.612;2023-06-14T05:01:39;15.80;87.40
50162;DHT22;36061;48.116;11.612;2023-06-14T05:04:06;15.90;87.40
50162;DHT22;36061;48.116;11.612;2023-06-14T05:06:33;16.10;87.20
50162;DHT22;36061;48.116;11.612;2023-06-14T05:09:02;16.20;86.90
50162;DHT22;36061;48.116;11.612;2023-06-14T05:11:29;16.30;86.50
50162;DHT22;36061;48.116;11.612;2023-06-14T05:13:56;16.50;86.30
50162;DHT22;36061;48.116;11.612;2023-06-14T05:16:25;16.60;85.90
50162;DHT22;36061;48.116;11.612;2023-06-14T05:18:55;16.80;85.40
50162;DHT22;36061;48.116;11.612;2023-06-14T05:21:22;17.00;84.80
50162;DHT22;36061;48.116;11.612;2023-06-14T05:23:49;17.10;84.20
50162;DHT22;36061;48.116;11.612;2023-06-14T05:26:17;17.30;84.20
50162;DHT22;36061;48.116;11.612;2023-06-14T05:28:44;17.40;83.50
50162;DHT22;36061;48.116;11.612;2023-06-14T05:31:11;17.60;83.30
50162;DHT22;36061;48.116;11.612;2023-06-14T05:33:40;17.70;82.80
50162;DHT22;36061;48.116;11.612;2023-06-14T05:36:07;17.80;82.40
50162;DHT22;36061;48.116;11.612;2023-06-14T05:38:34;17.90;81.40
50162;DHT22;36061;48.116;11.612;2023-06-14T05:41:01;17.90;79.10
50162;DHT22;36061;48.116;11.612;2023-06-14T05:43:29;17.90;79.80
50162;DHT22;36061;48.116;11.612;2023-06-14T05:45:57;17.90;80.10
50162;DHT22;36061;48.116;11.612;2023-06-14T05:48:24;17.90;80.00
50162;DHT22;36061;48.116;11.612;2023-06-14T05:50:53;18.00;80.00
50162;DHT22;36061;48.116;11.612;2023-06-14T05:53:20;18.10;80.10
50162;DHT22;36061;48.116;11.612;2023-06-14T05:55:48;18.10;80.10
50162;DHT22;36061;48.116;11.612;2023-06-14T05:58:16;18.20;79.70
50162;DHT22;36061;48.116;11.612;2023-06-14T06:00:43;18.30;78.80
50162;DHT22;36061;48.116;11.612;2023-06-14T06:03:11;18.30;79.20
50162;DHT22;36061;48.116;11.612;2023-06-14T06:05:39;18.40;79.30
50162;DHT22;36061;48.116;11.612;2023-06-14T06:08:07;18.30;79.00
50162;DHT22;36061;48.116;11.612;2023-06-14T06:10:34;18.30;79.30
50162;DHT22;36061;48.116;11.612;2023-06-14T06:13:02;18.30;79.50
50162;DHT22;36061;48.116;11.612;2023-06-14T06:15:29;18.30;79.10
50162;DHT22;36061;48.116;11.612;2023-06-14T06:17:56;18.30;79.40
50162;DHT22;36061;48.116;11.612;2023-06-14T06:20:24;18.30;79.80
50162;DHT22;36061;48.116;11.612;2023-06-14T06:22:53;18.40;80.00
50162;DHT22;36061;48.116;11.612;2023-06-14T06:25:22;18.40;79.70
50162;DHT22;36061;48.116;11.612;2023-06-14T06:27:51;18.30;79.70
50162;DHT22;36061;48.116;11.612;2023-06-14T06:30:19;18.30;79.80
50162;DHT22;36061;48.116;11.612;2023-06-14T06:32:46;18.30;80.00
50162;DHT22;36061;48.116;11.612;2023-06-14T06:35:15;18.30;80.10
50162;DHT22;36061;48.116;11.612;2023-06-14T06:37:42;18.30;80.10
50162;DHT22;36061;48.116;11.612;2023-06-14T06:40:10;18.40;80.30
50162;DHT22;36061;48.116;11.612;2023-06-14T06:42:39;18.30;80.20
50162;DHT22;36061;48.116;11.612;2023-06-14T06:45:10;18.40;80.30
50162;DHT22;36061;48.116;11.612;2023-06-14T06:47:38;18.40;80.40
50162;DHT22;36061;48.116;11.612;2023-06-14T06:50:06;18.40;80.50
50162;DHT22;36061;48.116;11.612;2023-06-14T06:52:34;18.50;80.60
50162;DHT22;36061;48.116;11.612;2023-06-14T06:55:01;18.50;80.80
50162;DHT22;36061;48.116;11.612;2023-06-14T06:57:29;18.50;81.00
50162;DHT22;36061;48.116;11.612;2023-06-14T06:59:57;18.50;81.00
50162;DHT22;36061;48.116;11.612;2023-06-14T07:02:25;18.50;80.80
50162;DHT22;36061;48.116;11.612;2023-06-14T07:04:52;18.50;80.90
50162;DHT22;36061;48.116;11.612;2023-06-14T07:07:19;18.50;80.80
50162;DHT22;36061;48.116;11.612;2023-06-14T07:09:46;18.50;81.00
50162;DHT22;36061;48.116;11.612;2023-06-14T07:12:13;18.40;81.00
50162;DHT22;36061;48.116;11.612;2023-06-14T07:14:41;18.50;81.00
50162;DHT22;36061;48.116;11.612;2023-06-14T07:17:09;18.50;81.00
50162;DHT22;36061;48.116;11.612;2023-06-14T07:19:37;18.50;80.90
50162;DHT22;36061;48.116;11.612;2023-06-14T07:22:07;18.50;80.60
50162;DHT22;36061;48.116;11.612;2023-06-14T07:24:35;18.50;80.40
50162;DHT22;36061;48.116;11.612;2023-06-14T07:27:03;18.60;80.40
50162;DHT22;36061;48.116;11.612;2023-06-14T07:29:30;18.60;80.60
50162;DHT22;36061;48.116;11.612;2023-06-14T07:31:57;18.70;80.50
50162;DHT22;36061;48.116;11.612;2023-06-14T07:34:26;18.70;80.40
50162;DHT22;36061;48.116;11.612;2023-06-14T07:36:54;18.80;80.30
50162;DHT22;36061;48.116;11.612;2023-06-14T07:39:21;18.90;79.60
50162;DHT22;36061;48.116;11.612;2023-06-14T07:41:49;18.90;78.90
50162;DHT22;36061;48.116;11.612;2023-06-14T07:44:16;19.00;78.90
50162;DHT22;36061;48.116;11.612;2023-06-14T07:46:43;19.00;79.10
50162;DHT22;36061;48.116;11.612;2023-06-14T07:49:12;19.10;79.30
50162;DHT22;36061;48.116;11.612;2023-06-14T07:51:41;19.10;79.30
50162;DHT22;36061;48.116;11.612;2023-06-14T07:54:09;19.20;78.90
50162;DHT22;36061;48.116;11.612;2023-06-14T07:56:36;19.30;78.50
50162;DHT22;36061;48.116;11.612;2023-06-14T07:59:03;19.40;77.60
50162;DHT22;36061;48.116;11.612;2023-06-14T08:01:31;19.40;76.40
50162;DHT22;36061;48.116;11.612;2023-06-14T08:03:59;19.50;76.20
50162;DHT22;36061;48.116;11.612;2023-06-14T08:06:26;19.50;76.30
50162;DHT22;36061;48.116;11.612;2023-06-14T08:08:55;19.50;74.80
50162;DHT22;36061;48.116;11.612;2023-06-14T08:11:22;19.50;74.60
50162;DHT22;36061;48.116;11.612;2023-06-14T08:13:50;19.40;74.40
50162;DHT22;36061;48.116;11.612;2023-06-14T08:16:17;19.50;74.80
50162;DHT22;36061;48.116;11.612;2023-06-14T08:18:45;19.50;75.00
50162;DHT22;36061;48.116;11.612;2023-06-14T08:21:12;19.50;74.70
50162;DHT22;36061;48.116;11.612;2023-06-14T08:23:40;19.50;73.50
50162;DHT22;36061;48.116;11.612;2023-06-14T08:26:10;19.60;73.30
50162;DHT22;36061;48.116;11.612;2023-06-14T08:28:37;19.60;73.00
50162;DHT22;36061;48.116;11.612;2023-06-14T08:31:04;19.70;72.20
50162;DHT22;36061;48.116;11.612;2023-06-14T08:33:32;19.70;71.60
50162;DHT22;36061;48.116;11.612;2023-06-14T08:36:00;19.80;70.70
50162;DHT22;36061;48.116;11.612;2023-06-14T08:38:27;19.80;69.60
50162;DHT22;36061;48.116;11.612;2023-06-14T08:40:57;19.80;68.20
50162;DHT22;36061;48.116;11.612;2023-06-14T08:43:26;19.80;68.50
50162;DHT22;36061;48.116;11.612;2023-06-14T08:45:58;19.80;68.70
50162;DHT22;36061;48.116;11.612;2023-06-14T08:48:27;19.90;67.20
50162;DHT22;36061;48.116;11.612;2023-06-14T08:50:56;20.00;67.30
50162;DHT22;36061;48.116;11.612;2023-06-14T08:53:28;20.00;66.50
50162;DHT22;36061;48.116;11.612;2023-06-14T08:55:58;20.00;66.90
50162;DHT22;36061;48.116;11.612;2023-06-14T08:58:29;20.10;67.10
50162;DHT22;36061;48.116;11.612;2023-06-14T09:00:57;20.10;66.90
50162;DHT22;36061;48.116;11.612;2023-06-14T09:03:24;20.20;66.70
50162;DHT22;36061;48.116;11.612;2023-06-14T09:05:56;20.20;66.90
50162;DHT22;36061;48.116;11.612;2023-06-14T09:08:25;20.30;66.60
50162;DHT22;36061;48.116;11.612;2023-06-14T09:10:53;20.30;66.60
50162;DHT22;36061;48.116;11.612;2023-06-14T09:13:20;20.30;66.40
50162;DHT22;36061;48.116;11.612;2023-06-14T09:15:49;20.30;65.80
50162;DHT22;36061;48.116;11.612;2023-06-14T09:18:18;20.30;65.20
50162;DHT22;36061;48.116;11.612;2023-06-14T09:20:47;20.40;65.80
50162;DHT22;36061;48.116;11.612;2023-06-14T09:23:20;20.40;66.10
50162;DHT22;36061;48.116;11.612;2023-06-14T09:25:48;20.40;66.60
50162;DHT22;36061;48.116;11.612;2023-06-14T09:28:15;20.40;66.90
50162;DHT22;36061;48.116;11.612;2023-06-14T09:30:42;20.50;67.20
50162;DHT22;36061;48.116;11.612;2023-06-14T09:33:11;20.60;67.20
50162;DHT22;36061;48.116;11.612;2023-06-14T09:35:45;20.70;67.50
50162;DHT22;36061;48.116;11.612;2023-06-14T09:38:12;20.70;67.70
50162;DHT22;36061;48.116;11.612;2023-06-14T09:40:39;20.70;67.90
50162;DHT22;36061;48.116;11.612;2023-06-14T09:43:07;20.70;67.90
50162;DHT22;36061;48.116;11.612;2023-06-14T09:45:35;20.80;67.90
50162;DHT22;36061;48.116;11.612;2023-06-14T09:48:06;20.80;67.90
50162;DHT22;36061;48.116;11.612;2023-06-14T09:50:35;20.80;67.70
50162;DHT22;36061;48.116;11.612;2023-06-14T09:53:07;20.90;67.50
50162;DHT22;36061;48.116;11.612;2023-06-14T09:55:36;20.90;67.10
50162;DHT22;36061;48.116;11.612;2023-06-14T09:58:07;20.90;66.70
50162;DHT22;36061;48.116;11.612;2023-06-14T10:00:36;20.90;66.80
50162;DHT22;36061;48.116;11.612;2023-06-14T10:03:08;21.00;66.30
50162;DHT22;36061;48.116;11.612;2023-06-14T10:05:42;21.00;66.30
50162;DHT22;36061;48.116;11.612;2023-06-14T10:08:13;21.10;66.20
50162;DHT22;36061;48.116;11.612;2023-06-14T10:10:42;21.10;65.70
50162;DHT22;36061;48.116;11.612;2023-06-14T10:13:10;21.20;65.60
50162;DHT22;36061;48.116;11.612;2023-06-14T10:15:43;21.20;64.00
50162;DHT22;36061;48.116;11.612;2023-06-14T10:18:19;21.20;63.40
50162;DHT22;36061;48.116;11.612;2023-06-14T10:20:55;21.30;63.70
50162;DHT22;36061;48.116;11.612;2023-06-14T10:23:26;21.30;63.20
50162;DHT22;36061;48.116;11.612;2023-06-14T10:25:57;21.30;62.80
50162;DHT22;36061;48.116;11.612;2023-06-14T10:28:25;21.30;63.50
50162;DHT22;36061;48.116;11.612;2023-06-14T10:31:03;21.30;63.70
50162;DHT22;36061;48.116;11.612;2023-06-14T10:33:31;21.30;64.20
50162;DHT22;36061;48.116;11.612;2023-06-14T10:39:01;21.10;64.00
50162;DHT22;36061;48.116;11.612;2023-06-14T10:41:34;21.10;64.60
50162;DHT22;36061;48.116;11.612;2023-06-14T10:47:27;21.00;64.60
50162;DHT22;36061;48.116;11.612;2023-06-14T10:50:02;20.90;64.70
50162;DHT22;36061;48.116;11.612;2023-06-14T10:52:36;20.90;65.00
50162;DHT22;36061;48.116;11.612;2023-06-14T10:55:08;20.90;67.10
50162;DHT22;36061;48.116;11.612;2023-06-14T10:57:40;20.90;68.20
50162;DHT22;36061;48.116;11.612;2023-06-14T11:00:09;21.00;68.00
50162;DHT22;36061;48.116;11.612;2023-06-14T11:05:58;21.10;67.50
50162;DHT22;36061;48.116;11.612;2023-06-14T11:11:42;21.10;68.00
50162;DHT22;36061;48.116;11.612;2023-06-14T11:14:10;21.20;68.00
50162;DHT22;36061;48.116;11.612;2023-06-14T11:16:37;21.20;68.10
50162;DHT22;36061;48.116;11.612;2023-06-14T11:19:05;21.20;68.40
50162;DHT22;36061;48.116;11.612;2023-06-14T11:21:33;21.20;68.30
50162;DHT22;36061;48.116;11.612;2023-06-14T11:24:00;21.20;67.90
50162;DHT22;36061;48.116;11.612;2023-06-14T11:26:29;21.20;67.90
50162;DHT22;36061;48.116;11.612;2023-06-14T11:29:01;21.20;68.10
50162;DHT22;36061;48.116;11.612;2023-06-14T11:31:28;21.20;67.90
50162;DHT22;36061;48.116;11.612;2023-06-14T11:33:56;21.20;67.70
50162;DHT22;36061;48.116;11.612;2023-06-14T11:36:26;21.20;67.20
50162;DHT22;36061;48.116;11.612;2023-06-14T11:38:58;21.20;66.30
50162;DHT22;36061;48.116;11.612;2023-06-14T11:41:32;21.20;66.00
50162;DHT22;36061;48.116;11.612;2023-06-14T11:44:02;21.20;65.90
50162;DHT22;36061;48.116;11.612;2023-06-14T11:46:29;21.20;65.70
50162;DHT22;36061;48.116;11.612;2023-06-14T11:48:56;21.30;65.50
50162;DHT22;36061;48.116;11.612;2023-06-14T11:51:25;21.30;65.10
50162;DHT22;36061;48.116;11.612;2023-06-14T11:53:52;21.30;64.80
50162;DHT22;36061;48.116;11.612;2023-06-14T11:56:19;21.30;64.90
50162;DHT22;36061;48.116;11.612;2023-06-14T11:58:47;21.30;63.90
50162;DHT22;36061;48.116;11.612;2023-06-14T12:01:19;21.30;63.30
50162;DHT22;36061;48.116;11.612;2023-06-14T12:03:49;21.30;63.70
50162;DHT22;36061;48.116;11.612;2023-06-14T12:06:26;21.40;63.70
50162;DHT22;36061;48.116;11.612;2023-06-14T12:08:55;21.40;63.40
50162;DHT22;36061;48.116;11.612;2023-06-14T12:11:23;21.40;63.50
50162;DHT22;36061;48.116;11.612;2023-06-14T12:13:50;21.40;63.40
50162;DHT22;36061;48.116;11.612;2023-06-14T12:16:19;21.40;63.70
50162;DHT22;36061;48.116;11.612;2023-06-14T12:18:47;21.40;64.00
50162;DHT22;36061;48.116;11.612;2023-06-14T12:21:15;21.40;64.40
50162;DHT22;36061;48.116;11.612;2023-06-14T12:23:43;21.40;64.40
50162;DHT22;36061;48.116;11.612;2023-06-14T12:26:13;21.30;64.50
50162;DHT22;36061;48.116;11.612;2023-06-14T12:28:41;21.30;64.30
50162;DHT22;36061;48.116;11.612;2023-06-14T12:31:09;21.20;64.10
50162;DHT22;36061;48.116;11.612;2023-06-14T12:33:38;21.20;64.30
50162;DHT22;36061;48.116;11.612;2023-06-14T12:36:08;21.30;64.10
50162;DHT22;36061;48.116;11.612;2023-06-14T12:38:36;21.30;64.00
50162;DHT22;36061;48.116;11.612;2023-06-14T12:41:03;21.30;63.80
50162;DHT22;36061;48.116;11.612;2023-06-14T12:43:30;21.30;63.80
50162;DHT22;36061;48.116;11.612;2023-06-14T12:45:58;21.40;63.80
50162;DHT22;36061;48.116;11.612;2023-06-14T12:48:25;21.40;63.00
50162;DHT22;36061;48.116;11.612;2023-06-14T12:50:54;21.40;62.70
50162;DHT22;36061;48.116;11.612;2023-06-14T12:53:22;21.50;62.90
50162;DHT22;36061;48.116;11.612;2023-06-14T12:55:49;21.50;63.00
50162;DHT22;36061;48.116;11.612;2023-06-14T12:58:17;21.60;63.00
50162;DHT22;36061;48.116;11.612;2023-06-14T13:00:45;21.60;63.00
50162;DHT22;36061;48.116;11.612;2023-06-14T13:03:12;21.50;63.10
50162;DHT22;36061;48.116;11.612;2023-06-14T13:05:40;21.50;63.30
50162;DHT22;36061;48.116;11.612;2023-06-14T13:08:10;21.40;63.50
50162;DHT22;36061;48.116;11.612;2023-06-14T13:10:37;21.40;63.20
50162;DHT22;36061;48.116;11.612;2023-06-14T13:13:05;21.40;62.90
50162;DHT22;36061;48.116;11.612;2023-06-14T13:15:34;21.30;62.90
50162;DHT22;36061;48.116;11.612;2023-06-14T13:18:01;21.30;62.40
50162;DHT22;36061;48.116;11.612;2023-06-14T13:20:29;21.40;61.90
50162;DHT22;36061;48.116;11.612;2023-06-14T13:22:56;21.40;61.40
50162;DHT22;36061;48.116;11.612;2023-06-14T13:25:24;21.40;61.20
50162;DHT22;36061;48.116;11.612;2023-06-14T13:27:51;21.40;61.50
50162;DHT22;36061;48.116;11.612;2023-06-14T13:30:19;21.40;61.70
50162;DHT22;36061;48.116;11.612;2023-06-14T13:32:47;21.50;61.80
50162;DHT22;36061;48.116;11.612;2023-06-14T13:35:14;21.50;62.00
50162;DHT22;36061;48.116;11.612;2023-06-14T13:37:42;21.50;62.40
50162;DHT22;36061;48.116;11.612;2023-06-14T13:40:10;21.50;62.30
50162;DHT22;36061;48.116;11.612;2023-06-14T13:42:39;21.50;62.20
50162;DHT22;36061;48.116;11.612;2023-06-14T13:45:07;21.50;61.70
50162;DHT22;36061;48.116;11.612;2023-06-14T13:47:35;21.40;61.40
50162;DHT22;36061;48.116;11.612;2023-06-14T13:50:02;21.40;61.30
50162;DHT22;36061;48.116;11.612;2023-06-14T13:52:30;21.40;61.20
50162;DHT22;36061;48.116;11.612;2023-06-14T13:54:57;21.40;61.10
50162;DHT22;36061;48.116;11.612;2023-06-14T13:57:24;21.50;61.00
50162;DHT22;36061;48.116;11.612;2023-06-14T13:59:53;21.50;60.90
50162;DHT22;36061;48.116;11.612;2023-06-14T14:02:26;21.50;60.80
50162;DHT22;36061;48.116;11.612;2023-06-14T14:04:54;21.60;59.70
50162;DHT22;36061;48.116;11.612;2023-06-14T14:07:21;21.60;59.40
50162;DHT22;36061;48.116;11.612;2023-06-14T14:09:49;21.60;59.50
50162;DHT22;36061;48.116;11.612;2023-06-14T14:12:17;21.60;59.50
50162;DHT22;36061;48.116;11.612;2023-06-14T14:14:44;21.60;59.40
50162;DHT22;36061;48.116;11.612;2023-06-14T14:17:13;21.60;59.00
50162;DHT22;36061;48.116;11.612;2023-06-14T14:19:40;21.60;58.90
50162;DHT22;36061;48.116;11.612;2023-06-14T14:22:08;21.60;58.70
50162;DHT22;36061;48.116;11.612;2023-06-14T14:24:35;21.50;58.50
50162;DHT22;36061;48.116;11.612;2023-06-14T14:27:02;21.50;58.70
50162;DHT22;36061;48.116;11.612;2023-06-14T14:29:29;21.60;58.70
50162;DHT22;36061;48.116;11.612;2023-06-14T14:31:57;21.60;59.00
50162;DHT22;36061;48.116;11.612;2023-06-14T14:34:25;21.60;59.00
50162;DHT22;36061;48.116;11.612;2023-06-14T14:36:53;21.50;59.10
50162;DHT22;36061;48.116;11.612;2023-06-14T14:39:21;21.50;59.40
50162;DHT22;36061;48.116;11.612;2023-06-14T14:41:48;21.50;59.30
50162;DHT22;36061;48.116;11.612;2023-06-14T14:44:17;21.40;59.30
50162;DHT22;36061;48.116;11.612;2023-06-14T14:46:45;21.40;59.30
50162;DHT22;36061;48.116;11.612;2023-06-14T14:49:12;21.30;59.10
50162;DHT22;36061;48.116;11.612;2023-06-14T14:51:41;21.30;59.20
50162;DHT22;36061;48.116;11.612;2023-06-14T14:54:08;21.30;59.00
50162;DHT22;36061;48.116;11.612;2023-06-14T14:56:35;21.30;59.00
50162;DHT22;36061;48.116;11.612;2023-06-14T14:59:04;21.30;59.40
50162;DHT22;36061;48.116;11.612;2023-06-14T15:01:31;21.40;60.00
50162;DHT22;36061;48.116;11.612;2023-06-14T15:03:58;21.40;60.20
50162;DHT22;36061;48.116;11.612;2023-06-14T15:06:26;21.50;60.50
50162;DHT22;36061;48.116;11.612;2023-06-14T15:08:55;21.50;60.80
50162;DHT22;36061;48.116;11.612;2023-06-14T15:11:22;21.50;61.20
50162;DHT22;36061;48.116;11.612;2023-06-14T15:13:50;21.50;61.10
50162;DHT22;36061;48.116;11.612;2023-06-14T15:16:17;21.50;61.10
50162;DHT22;36061;48.116;11.612;2023-06-14T15:18:44;21.50;61.50
50162;DHT22;36061;48.116;11.612;2023-06-14T15:21:12;21.50;61.60
50162;DHT22;36061;48.116;11.612;2023-06-14T15:23:39;21.50;61.40
50162;DHT22;36061;48.116;11.612;2023-06-14T15:26:08;21.50;61.10
50162;DHT22;36061;48.116;11.612;2023-06-14T15:28:35;21.50;61.10
50162;DHT22;36061;48.116;11.612;2023-06-14T15:31:02;21.60;61.30
50162;DHT22;36061;48.116;11.612;2023-06-14T15:33:29;21.60;60.80
50162;DHT22;36061;48.116;11.612;2023-06-14T15:35:57;21.60;60.70